createdAt,value
2023-04-06T00:04:30.537Z,10.20
2023-04-06T00:09:35.806Z,10.55
2023-04-06T00:14:39.413Z,10.00
2023-04-06T00:19:43.029Z,10.57
2023-04-06T00:24:47.868Z,11.25
2023-04-06T00:34:54.890Z,9.52
2023-04-06T00:39:59.922Z,10.43
2023-04-06T00:45:04.161Z,10.52
2023-04-06T00:50:09.132Z,10.23
2023-04-06T00:55:14.094Z,10.52
2023-04-06T01:00:18.617Z,10.55
2023-04-06T01:05:22.318Z,9.75
2023-04-06T01:10:28.054Z,9.75
2023-04-06T01:15:32.426Z,9.38
2023-04-06T01:20:36.020Z,9.88
2023-04-06T01:25:40.907Z,9.00
2023-04-06T01:35:47.617Z,9.45
2023-04-06T01:40:52.566Z,9.18
2023-04-06T01:45:56.621Z,9.13
2023-04-06T01:51:00.335Z,8.57
2023-04-06T01:56:05.640Z,8.30
2023-04-06T02:01:09.198Z,8.48
2023-04-06T02:06:12.792Z,7.82
2023-04-06T02:11:17.862Z,8.13
2023-04-06T02:16:21.433Z,8.40
2023-04-06T02:21:25.251Z,8.88
2023-04-06T02:26:30.173Z,7.80
2023-04-06T02:36:36.903Z,8.40
2023-04-06T02:41:42.289Z,7.88
2023-04-06T02:46:45.782Z,8.25
2023-04-06T02:51:49.400Z,8.80
2023-04-06T02:56:54.725Z,9.18
2023-04-06T03:01:58.294Z,8.48
2023-04-06T03:07:01.764Z,8.60
2023-04-06T03:12:09.276Z,9.13
2023-04-06T03:17:13.541Z,9.32
2023-04-06T03:22:17.249Z,8.68
2023-04-06T03:27:22.137Z,9.02
2023-04-06T03:37:28.918Z,8.52
2023-04-06T03:42:34.045Z,8.32
2023-04-06T03:47:37.589Z,7.80
2023-04-06T03:52:41.154Z,7.90
2023-04-06T03:57:46.053Z,7.35
2023-04-06T04:07:52.782Z,6.85
2023-04-06T04:12:57.661Z,7.18
2023-04-06T04:23:04.466Z,5.28
2023-04-06T04:28:09.442Z,4.90
2023-04-06T04:33:12.987Z,5.10
2023-04-06T04:38:16.647Z,5.35
2023-04-06T04:43:21.594Z,5.10
2023-04-06T04:53:28.292Z,5.68
2023-04-06T04:58:33.174Z,4.78
2023-04-06T05:08:40.723Z,4.60
2023-04-06T05:13:45.842Z,4.45
2023-04-06T05:18:50.315Z,4.18
2023-04-06T05:23:55.083Z,3.85
2023-04-06T05:29:00.108Z,3.90
2023-04-06T05:34:03.726Z,3.50
2023-04-06T05:39:07.460Z,3.87
2023-04-06T05:44:12.865Z,3.75
2023-04-06T05:49:16.514Z,3.95
2023-04-06T05:54:20.012Z,3.60
2023-04-06T05:59:25.489Z,3.90
2023-04-06T06:04:29.051Z,4.05
2023-04-06T06:09:32.536Z,3.60
2023-04-06T06:14:37.488Z,3.70
2023-04-06T06:19:41.010Z,3.70
2023-04-06T06:24:44.550Z,3.33
2023-04-06T06:29:49.445Z,3.58
2023-04-06T06:34:52.960Z,3.40
2023-04-06T06:39:56.445Z,3.90
2023-04-06T06:45:01.829Z,3.70
2023-04-06T06:50:08.634Z,3.38
2023-04-06T06:55:13.233Z,3.75
2023-04-06T07:00:18.621Z,3.90
2023-04-06T07:05:31.155Z,3.65
2023-04-06T07:10:34.695Z,3.80
2023-04-06T07:15:38.531Z,3.67
2023-04-06T07:20:43.464Z,3.30
2023-04-06T07:25:47.437Z,3.75
2023-04-06T07:30:50.932Z,3.47
2023-04-06T07:35:56.128Z,3.80
2023-04-06T07:40:59.748Z,3.50
2023-04-06T07:46:03.370Z,3.70
2023-04-06T07:51:11.816Z,3.40
2023-04-06T07:56:16.538Z,3.38
2023-04-06T08:01:20.215Z,3.30
2023-04-06T08:06:25.237Z,3.45
2023-04-06T08:11:28.982Z,3.45
2023-04-06T08:16:32.482Z,3.28
2023-04-06T08:21:37.691Z,3.53
2023-04-06T08:26:41.342Z,3.53
2023-04-06T08:31:44.915Z,3.30
2023-04-06T08:36:49.898Z,3.28
2023-04-06T08:41:54.258Z,2.70
2023-04-06T08:46:57.933Z,3.10
2023-04-06T08:52:03.344Z,3.25
2023-04-06T08:57:07.703Z,3.10
2023-04-06T09:02:18.390Z,3.30
2023-04-06T09:07:23.684Z,3.20
2023-04-06T09:12:28.798Z,2.97
2023-04-06T09:17:35.062Z,3.40
2023-04-06T09:22:41.335Z,3.00
2023-04-06T09:27:45.657Z,2.80
2023-04-06T09:32:51.040Z,2.55
2023-04-06T09:37:56.550Z,2.88
2023-04-06T09:43:00.566Z,2.45
2023-04-06T09:48:05.687Z,2.70
2023-04-06T09:53:10.997Z,2.80
2023-04-06T09:58:20.386Z,2.40
2023-04-06T10:03:38.656Z,2.55
2023-04-06T10:08:45.595Z,2.53
2023-04-06T10:13:51.057Z,2.50
2023-04-06T10:19:00.498Z,2.50
2023-04-06T10:24:13.273Z,3.00
2023-04-06T10:29:16.985Z,2.45
2023-04-06T10:34:20.650Z,2.63
2023-04-06T10:39:29.178Z,2.60
2023-04-06T10:44:32.749Z,3.08
2023-04-06T10:49:36.321Z,3.20
2023-04-06T10:54:45.247Z,2.95
2023-04-06T10:59:48.897Z,2.45
2023-04-06T11:04:59.388Z,2.53
2023-04-06T11:10:15.487Z,2.45
2023-04-06T11:15:21.426Z,2.50
2023-04-06T11:20:25.141Z,2.50
2023-04-06T11:25:32.389Z,2.70
2023-04-06T11:30:35.944Z,2.30
2023-04-06T11:35:40.005Z,2.40
2023-04-06T11:40:45.311Z,2.70
2023-04-06T11:45:49.170Z,2.25
2023-04-06T11:50:59.024Z,2.60
2023-04-06T11:56:07.325Z,2.25
2023-04-06T12:01:13.136Z,2.35
2023-04-06T12:06:19.040Z,2.40
2023-04-06T12:11:24.373Z,2.30
2023-04-06T12:16:27.878Z,2.80
2023-04-06T12:21:32.148Z,2.10
2023-04-06T12:26:38.266Z,2.35
2023-04-06T12:31:44.323Z,3.20
2023-04-06T12:36:47.964Z,2.08
2023-04-06T12:41:53.233Z,1.90
2023-04-06T12:46:57.479Z,2.00
2023-04-06T12:52:01.063Z,2.25
2023-04-06T12:57:06.148Z,2.17
2023-04-06T13:02:09.716Z,1.92
2023-04-06T13:07:13.464Z,1.92
2023-04-06T13:12:18.643Z,1.90
2023-04-06T13:17:22.264Z,1.80
2023-04-06T13:22:25.866Z,1.55
2023-04-06T13:27:34.894Z,1.70
2023-04-06T13:32:38.767Z,1.50
2023-04-06T13:37:42.476Z,1.80
2023-04-06T13:42:47.536Z,1.40
2023-04-06T13:47:51.033Z,1.35
2023-04-06T13:52:54.736Z,1.30
2023-04-06T13:57:59.689Z,1.53
2023-04-06T14:03:03.342Z,1.30
2023-04-06T14:08:07.064Z,1.20
2023-04-06T14:13:12.932Z,1.20
2023-04-06T14:18:16.488Z,1.40
2023-04-06T14:23:19.931Z,1.17
2023-04-06T14:28:24.880Z,1.60
2023-04-06T14:33:28.599Z,1.45
2023-04-06T14:38:32.327Z,1.50
2023-04-06T14:43:37.255Z,1.50
2023-04-06T14:48:40.885Z,1.48
2023-04-06T14:53:44.624Z,1.80
2023-04-06T14:58:49.619Z,1.63
2023-04-06T15:03:53.238Z,1.63
2023-04-06T15:08:57.101Z,1.63
2023-04-06T15:14:03.157Z,1.63
2023-04-06T15:19:06.684Z,1.48
2023-04-06T15:24:10.751Z,1.35
2023-04-06T15:29:15.613Z,1.25
2023-04-06T15:34:19.285Z,1.40
2023-04-06T15:39:22.725Z,1.40
2023-04-06T15:44:27.655Z,1.40
2023-04-06T15:49:31.470Z,1.55
2023-04-06T15:54:36.699Z,1.00
2023-04-06T15:59:41.643Z,1.60
2023-04-06T16:04:45.273Z,1.42
2023-04-06T16:09:48.712Z,1.70
2023-04-06T16:14:53.671Z,1.45
2023-04-06T16:19:57.300Z,1.70
2023-04-06T16:25:00.905Z,1.90
2023-04-06T16:30:06.948Z,2.20
2023-04-06T16:35:10.953Z,2.22
2023-04-06T16:40:15.204Z,2.33
2023-04-06T16:45:20.313Z,3.72
2023-04-06T16:50:23.792Z,3.45
2023-04-06T16:55:27.364Z,3.00
2023-04-06T17:00:32.215Z,3.17
2023-04-06T17:10:46.362Z,2.92
2023-04-06T17:16:03.823Z,3.15
2023-04-06T17:21:09.293Z,3.17
2023-04-06T17:26:12.749Z,2.67
2023-04-06T17:31:17.770Z,2.47
2023-04-06T17:36:21.964Z,2.80
2023-04-06T17:41:26.727Z,2.70
2023-04-06T17:46:31.634Z,2.22
2023-04-06T17:51:35.105Z,2.10
2023-04-06T17:56:38.639Z,2.00
2023-04-06T18:01:43.582Z,2.20
2023-04-06T18:06:47.346Z,2.08
2023-04-06T18:11:50.973Z,1.75
2023-04-06T18:16:55.813Z,2.30
2023-04-06T18:27:02.730Z,2.17
2023-04-06T18:32:08.180Z,2.20
2023-04-06T18:37:11.658Z,2.28
2023-04-06T18:42:15.161Z,2.10
2023-04-06T18:47:20.172Z,1.75
2023-04-06T18:52:24.445Z,1.98
2023-04-06T18:57:28.038Z,1.75
2023-04-06T19:02:33.083Z,1.80
2023-04-06T19:07:37.697Z,1.80
2023-04-06T19:12:41.461Z,1.58
2023-04-06T19:17:47.764Z,1.67
2023-04-06T19:22:51.347Z,1.58
2023-04-06T19:27:54.932Z,1.80
2023-04-06T19:32:59.954Z,1.58
2023-04-06T19:38:03.485Z,1.65
2023-04-06T19:43:06.932Z,2.17
2023-04-06T19:48:11.764Z,1.60
2023-04-06T19:58:18.711Z,1.52
2023-04-06T20:03:23.730Z,1.55
2023-04-06T20:08:27.268Z,1.63
2023-04-06T20:13:31.459Z,1.40
2023-04-06T20:18:37.220Z,1.50
2023-04-06T20:23:40.696Z,1.60
2023-04-06T20:28:44.459Z,1.52
2023-04-06T20:33:49.410Z,1.85
2023-04-06T20:43:56.066Z,1.80
2023-04-06T20:49:01.015Z,1.80
2023-04-06T20:54:04.512Z,1.90
2023-04-06T20:59:07.975Z,1.80
2023-04-06T21:04:12.978Z,2.03
2023-04-06T21:09:16.978Z,2.33
2023-04-06T21:14:21.280Z,2.10
2023-04-06T21:19:27.713Z,1.90
2023-04-06T21:24:31.173Z,1.80
2023-04-06T21:29:34.650Z,2.20
2023-04-06T21:34:39.560Z,2.72
2023-04-06T21:39:43.241Z,1.80
2023-04-06T21:44:46.821Z,2.13
2023-04-06T21:49:51.852Z,2.20
2023-04-06T21:59:58.565Z,2.10
2023-04-06T22:05:03.633Z,2.03
2023-04-06T22:10:07.957Z,2.10
2023-04-06T22:15:13.239Z,2.03
2023-04-06T22:20:18.245Z,1.80
2023-04-06T22:30:25.111Z,1.80
2023-04-06T22:35:30.152Z,1.80
2023-04-06T22:40:33.644Z,1.42
2023-04-06T22:45:37.154Z,1.80
2023-04-06T22:50:42.087Z,1.90
2023-04-06T23:00:49.216Z,1.60
2023-04-06T23:05:54.098Z,1.75
2023-04-06T23:16:00.788Z,1.80
2023-04-06T23:21:07.908Z,2.00
2023-04-06T23:26:11.598Z,1.90
2023-04-06T23:31:15.106Z,1.90
2023-04-06T23:36:19.960Z,2.13
2023-04-06T23:46:26.866Z,2.30
2023-04-06T23:51:31.954Z,1.73
2023-04-06T23:56:35.656Z,1.73
